createdAt,value
2018-06-09T05:15:12.499Z,19.90
2018-06-09T05:17:40.549Z,19.80
2018-06-09T05:20:08.594Z,20.10
2018-06-09T05:22:36.648Z,20.30
2018-06-09T05:25:04.873Z,20.50
2018-06-09T05:27:32.920Z,20.70
2018-06-09T05:30:00.977Z,21.00
2018-06-09T05:32:29.032Z,21.10
2018-06-09T05:34:57.072Z,21.20
2018-06-09T05:37:25.120Z,21.40
2018-06-09T05:39:53.175Z,21.60
2018-06-09T05:42:21.232Z,21.80
2018-06-09T05:44:49.268Z,21.90
2018-06-09T05:47:17.318Z,22.00
2018-06-09T05:49:45.378Z,22.20
2018-06-09T05:52:13.464Z,22.20
2018-06-09T05:54:41.512Z,22.30
2018-06-09T05:57:09.582Z,22.40
2018-06-09T05:59:37.632Z,22.30
2018-06-09T06:02:05.799Z,22.40
2018-06-09T06:04:33.832Z,22.40
2018-06-09T06:07:01.878Z,22.50
2018-06-09T06:09:29.934Z,22.60
2018-06-09T06:11:57.989Z,22.60
2018-06-09T06:14:26.037Z,22.80
2018-06-09T06:16:54.085Z,22.90
2018-06-09T06:19:22.133Z,23.00
2018-06-09T06:21:50.184Z,23.00
2018-06-09T06:24:18.235Z,23.10
2018-06-09T06:26:46.284Z,23.20
2018-06-09T06:29:14.324Z,23.20
2018-06-09T06:31:42.457Z,23.30
2018-06-09T06:34:10.509Z,23.30
2018-06-09T06:39:09.269Z,23.40
2018-06-09T06:41:37.333Z,23.70
2018-06-09T06:44:05.408Z,23.90
2018-06-09T06:46:33.475Z,24.10
2018-06-09T06:49:01.544Z,24.40
2018-06-09T06:51:29.608Z,24.60
2018-06-09T06:53:57.687Z,24.80
2018-06-09T06:56:25.754Z,25.20
2018-06-09T06:58:53.828Z,25.90
2018-06-09T07:01:21.889Z,26.50
2018-06-09T07:03:49.960Z,26.90
2018-06-09T07:06:18.076Z,27.20
2018-06-09T07:08:46.157Z,27.40
2018-06-09T07:11:14.216Z,27.50
2018-06-09T07:13:42.297Z,27.80
2018-06-09T07:16:10.348Z,28.00
2018-06-09T07:18:38.416Z,28.00
2018-06-09T07:21:06.493Z,28.40
2018-06-09T07:23:34.564Z,28.70
2018-06-09T07:26:02.641Z,29.20
2018-06-09T07:28:30.720Z,29.60
2018-06-09T07:30:58.801Z,29.80
2018-06-09T07:33:26.868Z,29.90
2018-06-09T07:35:54.941Z,30.20
2018-06-09T07:38:23.024Z,30.20
2018-06-09T07:40:51.081Z,30.10
2018-06-09T07:43:19.141Z,30.00
2018-06-09T07:45:47.206Z,30.00
2018-06-09T07:48:15.317Z,30.20
2018-06-09T07:50:43.377Z,30.40
2018-06-09T07:53:11.442Z,30.30
2018-06-09T07:55:39.554Z,30.70
2018-06-09T07:58:07.622Z,30.90
2018-06-09T08:00:35.680Z,31.10
2018-06-09T08:03:03.756Z,31.10
2018-06-09T08:05:31.813Z,30.80
2018-06-09T08:07:59.981Z,30.80
2018-06-09T08:10:28.061Z,31.00
2018-06-09T08:12:56.128Z,31.20
2018-06-09T08:17:52.134Z,31.20
2018-06-09T08:20:20.188Z,31.00
2018-06-09T08:22:48.260Z,31.10
2018-06-09T08:25:16.329Z,31.40
2018-06-09T08:27:44.411Z,31.70
2018-06-09T08:30:12.465Z,31.80
2018-06-09T08:32:40.549Z,31.90
2018-06-09T08:35:08.610Z,31.80
2018-06-09T08:37:36.676Z,31.90
2018-06-09T08:42:32.669Z,32.50
2018-06-09T08:45:00.744Z,32.80
2018-06-09T08:47:28.816Z,33.30
2018-06-09T08:49:56.892Z,33.40
2018-06-09T08:52:24.962Z,33.70
2018-06-09T08:54:53.033Z,33.90
2018-06-09T08:57:21.110Z,34.10
2018-06-09T08:59:49.201Z,34.40
2018-06-09T09:02:17.260Z,34.40
2018-06-09T09:04:45.345Z,34.40
2018-06-09T09:07:13.420Z,34.30
2018-06-09T09:09:41.508Z,34.10
2018-06-09T09:12:09.561Z,33.90
2018-06-09T09:14:37.636Z,34.10
2018-06-09T09:17:05.718Z,34.60
2018-06-09T09:19:33.784Z,35.10
2018-06-09T09:22:01.853Z,35.30
2018-06-09T09:24:29.933Z,35.60
2018-06-09T09:26:58.008Z,36.00
2018-06-09T09:29:26.089Z,36.10
2018-06-09T09:31:54.143Z,36.20
2018-06-09T09:34:22.214Z,36.00
2018-06-09T09:39:18.127Z,35.60
2018-06-09T09:41:46.171Z,35.30
2018-06-09T09:44:14.231Z,35.10
2018-06-09T09:46:42.286Z,35.00
2018-06-09T09:49:10.361Z,34.90
2018-06-09T09:51:38.408Z,34.70
2018-06-09T09:56:34.320Z,34.20
2018-06-09T09:59:02.369Z,34.30
2018-06-09T10:01:30.416Z,34.40
2018-06-09T10:03:58.473Z,34.70
2018-06-09T10:06:26.521Z,35.00
2018-06-09T10:08:54.616Z,35.30
2018-06-09T10:11:22.665Z,35.80
2018-06-09T10:13:50.708Z,36.10
2018-06-09T10:16:18.771Z,36.60
2018-06-09T10:18:46.831Z,37.00
2018-06-09T10:21:14.896Z,37.30
2018-06-09T10:23:42.953Z,37.60
2018-06-09T10:26:11.000Z,37.60
2018-06-09T10:28:39.061Z,37.70
2018-06-09T10:31:07.147Z,37.70
2018-06-09T10:33:35.225Z,37.90
2018-06-09T10:36:03.285Z,37.60
2018-06-09T10:38:31.365Z,37.40
2018-06-09T10:40:59.445Z,37.30
2018-06-09T10:43:27.529Z,36.70
2018-06-09T10:45:55.612Z,36.60
2018-06-09T10:48:23.683Z,36.50
2018-06-09T10:50:51.765Z,36.70
2018-06-09T10:53:19.836Z,36.90
2018-06-09T10:55:47.921Z,37.20
2018-06-09T10:58:15.976Z,37.60
2018-06-09T11:00:44.048Z,37.60
2018-06-09T11:03:12.121Z,37.80
2018-06-09T11:05:40.184Z,37.60
2018-06-09T11:08:08.265Z,37.90
2018-06-09T11:10:36.332Z,37.70
2018-06-09T11:13:04.564Z,37.70
2018-06-09T11:15:32.649Z,38.00
2018-06-09T11:18:00.717Z,38.30
2018-06-09T11:20:28.789Z,38.40
2018-06-09T11:22:56.857Z,37.90
2018-06-09T11:25:24.932Z,37.40
2018-06-09T11:27:52.998Z,37.00
2018-06-09T11:30:21.068Z,37.30
2018-06-09T11:35:17.058Z,37.60
2018-06-09T11:37:45.108Z,37.90
2018-06-09T11:40:13.162Z,38.00
2018-06-09T11:42:41.208Z,38.30
2018-06-09T11:45:09.264Z,38.50
2018-06-09T11:47:37.291Z,38.60
2018-06-09T11:50:05.344Z,38.90
2018-06-09T11:52:33.381Z,38.80
2018-06-09T11:55:01.448Z,38.50
2018-06-09T11:57:29.480Z,38.20
2018-06-09T11:59:57.541Z,37.90
2018-06-09T12:02:25.579Z,37.90
2018-06-09T12:04:53.642Z,37.70
2018-06-09T12:07:21.691Z,37.50
2018-06-09T12:09:49.739Z,37.80
2018-06-09T12:12:17.789Z,38.00
2018-06-09T12:14:45.838Z,38.30
2018-06-09T12:17:13.909Z,38.90
2018-06-09T12:19:41.978Z,39.20
2018-06-09T12:22:09.999Z,39.40
2018-06-09T12:24:38.056Z,39.80
2018-06-09T12:27:06.103Z,39.90
2018-06-09T12:29:34.160Z,39.60
2018-06-09T12:32:02.204Z,39.20
2018-06-09T12:34:30.261Z,38.70
2018-06-09T12:36:58.292Z,38.50
2018-06-09T12:39:26.391Z,38.60
2018-06-09T12:41:54.400Z,38.50
2018-06-09T12:44:22.441Z,38.60
2018-06-09T12:46:50.488Z,38.70
2018-06-09T12:49:18.532Z,38.90
2018-06-09T12:51:46.581Z,39.20
2018-06-09T12:54:14.613Z,39.00
2018-06-09T12:56:42.662Z,38.70
2018-06-09T12:59:10.709Z,38.60
2018-06-09T13:01:38.762Z,38.60
2018-06-09T13:06:34.748Z,38.10
2018-06-09T13:09:02.844Z,37.80
2018-06-09T13:11:30.888Z,37.10
2018-06-09T13:13:58.988Z,36.60
2018-06-09T13:16:27.004Z,36.40
2018-06-09T13:18:55.050Z,36.20
2018-06-09T13:21:23.116Z,35.90
2018-06-09T13:23:51.155Z,35.60
2018-06-09T13:26:19.225Z,35.30
2018-06-09T13:28:47.268Z,35.00
2018-06-09T13:31:15.338Z,34.70
2018-06-09T13:33:43.393Z,34.50
2018-06-09T13:36:11.529Z,34.10
2018-06-09T13:38:39.496Z,33.90
2018-06-09T13:41:07.560Z,33.60
2018-06-09T13:43:35.616Z,33.40
2018-06-09T13:46:03.664Z,33.20
2018-06-09T13:48:31.721Z,33.00
2018-06-09T13:50:59.780Z,32.80
2018-06-09T13:53:27.816Z,32.90
2018-06-09T13:55:55.877Z,33.00
2018-06-09T13:58:23.956Z,33.30
2018-06-09T14:00:52.025Z,33.60
2018-06-09T14:03:20.065Z,33.80
2018-06-09T14:05:48.117Z,34.00
2018-06-09T14:08:16.193Z,34.30
2018-06-09T14:10:44.257Z,34.50
2018-06-09T14:13:12.348Z,34.60
2018-06-09T14:15:40.385Z,34.70
2018-06-09T14:18:08.441Z,34.70
2018-06-09T14:20:36.497Z,34.10
2018-06-09T14:23:04.556Z,33.20
2018-06-09T14:25:32.620Z,30.80
2018-06-09T14:28:00.795Z,29.00
2018-06-09T14:30:28.847Z,27.80
2018-06-09T14:32:56.912Z,27.20
2018-06-09T14:35:24.983Z,26.70
2018-06-09T14:37:53.051Z,26.40
2018-06-09T14:40:21.104Z,26.00
2018-06-09T14:42:49.169Z,25.70
2018-06-09T14:45:17.242Z,25.70
2018-06-09T14:47:45.304Z,25.70
2018-06-09T14:50:13.373Z,25.70
2018-06-09T14:52:41.434Z,25.60
2018-06-09T14:55:09.493Z,25.40
2018-06-09T14:57:37.569Z,25.10
2018-06-09T15:00:05.706Z,24.80
2018-06-09T15:02:33.833Z,24.50
2018-06-09T15:05:01.858Z,24.40
2018-06-09T15:07:29.926Z,24.50
2018-06-09T15:09:57.984Z,24.70
2018-06-09T15:12:26.048Z,24.80
2018-06-09T15:14:54.105Z,25.00
2018-06-09T15:17:22.313Z,25.20
2018-06-09T15:19:50.398Z,25.30
2018-06-09T15:22:18.456Z,25.50
2018-06-09T15:24:46.508Z,25.50
2018-06-09T15:27:14.576Z,25.30
2018-06-09T15:29:42.656Z,25.30
2018-06-09T15:32:10.711Z,25.20
2018-06-09T15:34:38.763Z,25.40
2018-06-09T15:37:06.809Z,25.70
2018-06-09T15:39:34.855Z,25.80
2018-06-09T15:42:02.901Z,25.90
2018-06-09T15:44:30.937Z,26.00
2018-06-09T15:46:58.988Z,26.20
2018-06-09T15:49:27.032Z,26.50
2018-06-09T15:51:55.089Z,26.70
2018-06-09T15:54:23.140Z,27.00
2018-06-09T15:56:51.177Z,27.20
2018-06-09T15:59:19.225Z,27.30
2018-06-09T16:01:47.273Z,27.30
2018-06-09T16:04:15.312Z,27.40
2018-06-09T16:09:11.339Z,27.40
2018-06-09T16:11:39.260Z,27.50
2018-06-09T16:14:07.308Z,27.60
2018-06-09T16:16:35.372Z,27.60
2018-06-09T16:19:03.417Z,27.50
2018-06-09T16:21:31.460Z,27.40
2018-06-09T16:23:59.550Z,27.40
2018-06-09T16:26:27.610Z,27.30
2018-06-09T16:28:55.651Z,27.30
2018-06-09T16:31:23.730Z,27.10
2018-06-09T16:33:51.793Z,27.00
2018-06-09T16:36:19.858Z,26.90
2018-06-09T16:38:47.930Z,26.90
2018-06-09T16:41:15.996Z,26.80
2018-06-09T16:43:44.056Z,26.80
2018-06-09T16:46:12.140Z,26.80
2018-06-09T16:51:08.086Z,26.80
2018-06-09T16:53:36.149Z,26.70
2018-06-09T16:56:04.221Z,26.70
2018-06-09T16:58:32.322Z,26.70
2018-06-09T17:01:06.784Z,26.70
2018-06-09T17:03:34.824Z,26.50
2018-06-09T17:06:02.945Z,26.40
2018-06-09T17:08:31.020Z,26.30
2018-06-09T17:10:59.071Z,26.20
2018-06-09T17:13:27.144Z,26.10
2018-06-09T17:15:55.204Z,26.10
2018-06-09T17:18:23.285Z,25.90
2018-06-09T17:20:51.352Z,25.80
2018-06-09T17:23:19.420Z,25.90
2018-06-09T17:25:47.484Z,25.80
2018-06-09T17:28:15.551Z,25.80
2018-06-09T17:30:43.604Z,25.80
2018-06-09T17:33:11.689Z,25.80
2018-06-09T17:35:39.805Z,25.90
2018-06-09T17:38:07.884Z,25.90
2018-06-09T17:40:35.941Z,25.70
2018-06-09T17:43:04.020Z,25.60
2018-06-09T17:45:32.089Z,25.70
2018-06-09T17:48:00.160Z,25.70
2018-06-09T17:50:28.228Z,25.70
2018-06-09T17:55:30.885Z,25.80
2018-06-09T17:57:58.964Z,25.80
2018-06-09T18:00:27.088Z,25.90
2018-06-09T18:02:55.161Z,25.80
2018-06-09T18:05:23.228Z,25.90
2018-06-09T18:07:51.319Z,25.90
2018-06-09T18:10:19.399Z,25.90
2018-06-09T18:12:47.478Z,25.90
2018-06-09T18:15:15.536Z,25.80
2018-06-09T18:17:43.633Z,25.80
2018-06-09T18:20:11.725Z,25.90
2018-06-09T18:22:39.812Z,25.80
2018-06-09T18:25:07.847Z,25.70
2018-06-09T18:27:35.934Z,25.60
2018-06-09T18:30:04.492Z,25.60
2018-06-09T18:32:32.553Z,25.50
2018-06-09T18:35:00.596Z,25.40
2018-06-09T18:37:28.652Z,25.40
2018-06-09T18:39:56.713Z,25.50
2018-06-09T18:42:24.765Z,25.50
2018-06-09T18:44:52.800Z,25.40
2018-06-09T18:47:20.852Z,25.20
2018-06-09T18:49:48.899Z,25.00
2018-06-09T18:52:17.152Z,24.80
2018-06-09T18:54:45.236Z,24.50
2018-06-09T18:57:13.308Z,24.30
2018-06-09T18:59:41.352Z,24.20
2018-06-09T19:02:09.409Z,24.30
2018-06-09T19:04:37.457Z,24.40
2018-06-09T19:07:05.509Z,24.50
2018-06-09T19:09:33.563Z,24.40
2018-06-09T19:12:01.621Z,24.20
2018-06-09T19:14:29.664Z,24.00
2018-06-09T19:16:57.708Z,24.00
2018-06-09T19:19:25.762Z,24.10
2018-06-09T19:21:53.847Z,24.20
2018-06-09T19:24:21.852Z,24.10
2018-06-09T19:26:49.888Z,24.00
2018-06-09T19:29:17.938Z,23.60
2018-06-09T19:31:45.989Z,23.40
2018-06-09T19:34:14.038Z,23.20
2018-06-09T19:36:42.082Z,23.10
2018-06-09T19:39:10.122Z,23.00
2018-06-09T19:41:38.164Z,22.80
2018-06-09T19:44:06.213Z,22.70
2018-06-09T19:46:34.257Z,22.60
2018-06-09T19:49:02.310Z,22.60
2018-06-09T19:51:30.356Z,22.40
2018-06-09T19:53:58.409Z,22.10
2018-06-09T19:56:26.444Z,21.90
2018-06-09T19:58:54.501Z,21.90
2018-06-09T20:01:22.547Z,21.70
2018-06-09T20:03:50.589Z,21.70
2018-06-09T20:06:18.629Z,21.70
2018-06-09T20:08:46.673Z,21.80
2018-06-09T20:11:14.722Z,21.90
2018-06-09T20:13:42.767Z,21.90
2018-06-09T20:16:11.853Z,22.00
2018-06-09T20:18:39.905Z,22.00
2018-06-09T20:21:07.945Z,22.00
2018-06-09T20:23:35.993Z,22.00
2018-06-09T20:26:04.616Z,22.00
2018-06-09T20:28:33.164Z,22.00
2018-06-09T20:31:01.402Z,22.00
2018-06-09T20:33:29.445Z,22.00
2018-06-09T20:35:57.493Z,22.00
2018-06-09T20:38:25.540Z,22.00
2018-06-09T20:40:53.588Z,22.00
2018-06-09T20:43:21.628Z,22.00
2018-06-09T20:45:49.664Z,21.90
2018-06-09T20:48:17.716Z,21.90
2018-06-09T20:50:45.757Z,21.80
2018-06-09T20:53:13.812Z,21.80
2018-06-09T20:55:41.852Z,21.70
2018-06-09T20:58:09.915Z,21.70
2018-06-09T21:00:37.948Z,21.60
2018-06-09T21:03:06.001Z,21.60
2018-06-09T21:05:34.045Z,21.60
2018-06-09T21:08:02.096Z,21.60
2018-06-09T21:10:30.136Z,21.50
2018-06-09T21:12:58.181Z,21.50
2018-06-09T21:15:26.238Z,21.60
2018-06-09T21:17:54.260Z,21.60
2018-06-09T21:20:22.312Z,21.60
2018-06-09T21:22:50.359Z,21.60
2018-06-09T21:25:18.416Z,21.60
2018-06-09T21:27:52.000Z,21.60
2018-06-09T21:30:25.408Z,21.50
2018-06-09T21:32:58.876Z,21.50
2018-06-09T21:35:43.452Z,21.40
2018-06-09T21:38:17.791Z,21.30
2018-06-09T21:40:47.760Z,21.20
2018-06-09T21:43:21.607Z,21.20
2018-06-09T21:45:50.657Z,21.20
2018-06-09T21:48:19.647Z,21.20
2018-06-09T21:50:47.856Z,21.20
2018-06-09T21:53:15.922Z,21.20
2018-06-09T21:55:43.998Z,21.20
2018-06-09T21:58:12.058Z,21.20
2018-06-09T22:00:40.125Z,21.10
2018-06-09T22:03:08.185Z,21.20
2018-06-09T22:05:36.247Z,21.20
2018-06-09T22:08:04.313Z,21.20
2018-06-09T22:10:32.376Z,21.20
2018-06-09T22:13:00.443Z,21.20
2018-06-09T22:15:28.505Z,21.10
2018-06-09T22:17:56.579Z,21.10
2018-06-09T22:20:24.653Z,21.10
2018-06-09T22:22:52.716Z,21.10
2018-06-09T22:25:26.180Z,21.10
2018-06-09T22:27:54.244Z,21.10
2018-06-09T22:30:22.316Z,21.10
2018-06-09T22:32:50.394Z,21.10
2018-06-09T22:35:18.453Z,21.00
2018-06-09T22:37:46.514Z,20.90
2018-06-09T22:40:14.585Z,20.80
2018-06-09T22:42:42.641Z,20.80
2018-06-09T22:45:10.712Z,20.90
2018-06-09T22:47:38.773Z,20.80
2018-06-09T22:50:06.840Z,20.80
2018-06-09T22:52:34.902Z,20.90
2018-06-09T22:55:02.963Z,20.80
2018-06-09T22:57:31.032Z,20.80
2018-06-09T22:59:59.096Z,20.90
2018-06-09T23:04:55.019Z,21.00
2018-06-09T23:07:23.081Z,21.00
2018-06-09T23:09:51.187Z,20.90
2018-06-09T23:12:19.241Z,20.80
2018-06-09T23:14:47.313Z,20.80
2018-06-09T23:17:15.365Z,20.80
2018-06-09T23:19:43.437Z,20.80
2018-06-09T23:22:11.492Z,20.80
2018-06-09T23:24:39.593Z,20.90
2018-06-09T23:27:07.657Z,20.90
2018-06-09T23:29:35.716Z,20.70
2018-06-09T23:32:03.909Z,20.50
2018-06-09T23:34:32.033Z,20.30
2018-06-09T23:37:00.078Z,20.30
2018-06-09T23:39:28.132Z,20.50
2018-06-09T23:44:24.052Z,20.50
2018-06-09T23:46:52.108Z,20.30
2018-06-09T23:49:20.166Z,20.50
2018-06-09T23:51:48.233Z,20.50
2018-06-09T23:54:16.292Z,20.50
2018-06-09T23:56:44.356Z,20.40
2018-06-09T23:59:12.408Z,20.30
